Destinations Berlin-Schönefeld Airport

Berlin-Schönefeld Airport (EDDB / SXF)

Flights to Berlin-Schönefeld Airport

Flight number From ETE Dispatch
SPY-120 EHGG Groningen Airport Eelde 01:20

Flights from Berlin-Schönefeld Airport

Flight number To ETE Dispatch
SPY-121 EHGG Groningen Airport Eelde
About

Berlin-Schönefeld Airport facts

Berlin-Schönefeld Airport is located in Berlin at an elevation of 47.9 meters or 157 feet.

Currently, Speedy Airlines serves 2 flights to and from Berlin-Schönefeld Airport.

Detailed airport info

Route map

Weather

Current weather

METAR

METAR

Metar data retrieved Sunday, 21 July 2024 at 18:25 UTC

EDDB 211750Z AUTO 16014G26KT 130V230 9999 -SHRA VCTS SCT///CB 24/19 Q1008 RETSRA TEMPO 23015G30KT 2500 TSRA
Wind Temperature Thunderstorm
14/26 kt 24c